Time;durP1;ratioP1;P1;durP2;ratioP2;P2;SDS_P1;SDS_P2;PMS_P1;PMS_P2;Temp;Humidity;BMP_temperature;BMP_pressure;BME280_temperature;BME280_humidity;BME280_pressure;Samples;Min_cycle;Max_cycle;Signal;HPM_P1;HPM_P2
2022/09/23 00:01:09;;;;;;;6.85;4.62;;;;;;;12.87;100.00;99338.36;1688117;84;20896;-73
2022/09/23 00:03:40;;;;;;;7.90;4.67;;;;;;;12.83;100.00;99329.94;1688369;85;20925;-72
2022/09/23 00:06:11;;;;;;;5.90;4.97;;;;;;;12.81;100.00;99334.20;1692984;83;21004;-71
2022/09/23 00:08:38;;;;;;;5.42;4.60;;;;;;;12.81;100.00;99341.11;1695335;84;20993;-73
2022/09/23 00:11:07;;;;;;;7.53;4.33;;;;;;;12.80;100.00;99337.53;1695184;84;21094;-71
2022/09/23 00:13:35;;;;;;;8.25;5.05;;;;;;;12.79;100.00;99335.92;1695387;84;20990;-71
2022/09/23 00:16:05;;;;;;;9.53;4.60;;;;;;;12.83;100.00;99338.83;1695048;84;21056;-74
2022/09/23 00:18:32;;;;;;;6.80;4.95;;;;;;;12.84;100.00;99332.13;1665785;84;20943;-74
2022/09/23 00:21:05;;;;;;;8.40;4.45;;;;;;;12.85;100.00;99333.17;1695250;84;21026;-71
2022/09/23 00:23:33;;;;;;;7.00;4.85;;;;;;;12.86;100.00;99336.16;1695260;84;21035;-72
2022/09/23 00:26:02;;;;;;;5.33;4.55;;;;;;;12.83;100.00;99331.91;1695037;84;21070;-71
2022/09/23 00:28:32;;;;;;;5.75;4.15;;;;;;;12.85;100.00;99325.44;1695273;84;20884;-72
2022/09/23 00:31:09;;;;;;;7.62;4.10;;;;;;;12.86;100.00;99324.31;1695214;84;20848;-71
2022/09/23 00:33:42;;;;;;;6.22;4.75;;;;;;;12.87;100.00;99320.39;1695422;84;20884;-72
2022/09/23 00:36:11;;;;;;;7.90;5.00;;;;;;;12.85;100.00;99311.62;1695439;84;21836;-72
2022/09/23 00:38:43;;;;;;;8.35;4.72;;;;;;;12.85;100.00;99317.15;1695435;84;20924;-72
2022/09/23 00:41:10;;;;;;;11.43;5.62;;;;;;;12.84;100.00;99314.98;1695262;84;21453;-73
2022/09/23 00:43:55;;;;;;;8.90;5.33;;;;;;;12.82;100.00;99313.69;1695282;84;20896;-72
2022/09/23 00:46:40;;;;;;;4.97;4.47;;;;;;;12.81;100.00;99313.47;1695378;84;20996;-70
2022/09/23 00:49:27;;;;;;;6.17;4.28;;;;;;;12.81;100.00;99310.11;1695583;84;21751;-75
2022/09/23 00:51:58;;;;;;;7.70;5.42;;;;;;;12.81;100.00;99310.70;1694395;84;21535;-71
2022/09/23 00:54:27;;;;;;;8.45;4.90;;;;;;;12.83;100.00;99307.03;1683314;84;21434;-73
2022/09/23 00:56:54;;;;;;;7.40;5.33;;;;;;;12.85;100.00;99305.53;1654105;85;20989;-73
2022/09/23 00:59:23;;;;;;;10.03;5.28;;;;;;;12.88;100.00;99310.37;1683149;85;21025;-72
2022/09/23 01:01:53;;;;;;;6.47;4.45;;;;;;;12.85;100.00;99308.86;1683157;84;21134;-74
2022/09/23 01:04:25;;;;;;;6.95;5.55;;;;;;;12.82;100.00;99299.87;1683449;85;20964;-71
2022/09/23 01:06:53;;;;;;;10.08;5.10;;;;;;;12.84;100.00;99303.10;1702523;83;21554;-73
2022/09/23 01:09:22;;;;;;;7.80;5.33;;;;;;;12.75;100.00;99305.95;1705462;83;21005;-73
2022/09/23 01:12:12;;;;;;;8.43;5.03;;;;;;;12.73;100.00;99307.67;1705604;84;20865;-73
2022/09/23 01:15:02;;;;;;;6.30;4.53;;;;;;;12.78;100.00;99308.03;1705795;84;21370;-74
2022/09/23 01:18:03;;;;;;;6.05;4.80;;;;;;;12.84;100.00;99310.02;1705530;83;21027;-74
2022/09/23 01:20:58;;;;;;;5.40;4.42;;;;;;;12.83;100.00;99313.34;1705668;84;20984;-74
2022/09/23 01:24:13;;;;;;;6.00;4.55;;;;;;;12.76;100.00;99308.97;1705582;84;20969;-71
2022/09/23 01:27:13;;;;;;;6.33;4.00;;;;;;;12.76;100.00;99306.98;1705614;84;20938;-70
2022/09/23 01:30:33;;;;;;;4.35;3.62;;;;;;;12.75;100.00;99309.53;1685646;84;21588;-71
2022/09/23 01:33:08;;;;;;;6.47;4.92;;;;;;;12.77;100.00;99310.57;1705553;84;20846;-72
2022/09/23 01:35:47;;;;;;;5.70;4.60;;;;;;;12.80;100.00;99307.69;1705512;84;21492;-73
2022/09/23 01:38:40;;;;;;;5.05;4.53;;;;;;;12.84;100.00;99304.48;1705561;84;21007;-73
2022/09/23 01:41:30;;;;;;;6.00;4.10;;;;;;;12.79;100.00;99301.37;1705575;84;20924;-74
2022/09/23 01:44:19;;;;;;;5.97;4.17;;;;;;;12.79;100.00;99302.75;1705846;83;21109;-72
2022/09/23 01:47:05;;;;;;;7.83;4.47;;;;;;;12.82;100.00;99301.25;1705459;84;20936;-72
2022/09/23 01:49:52;;;;;;;6.22;5.00;;;;;;;12.85;100.00;99303.33;1705682;83;21052;-73
2022/09/23 01:52:32;;;;;;;5.42;4.85;;;;;;;12.84;100.00;99301.72;1699384;84;21009;-71
2022/09/23 01:55:22;;;;;;;5.50;4.67;;;;;;;12.85;100.00;99297.80;1705635;84;21008;-73
2022/09/23 01:58:15;;;;;;;7.40;4.25;;;;;;;12.86;100.00;99299.43;1705422;84;21200;-72
2022/09/23 02:00:58;;;;;;;6.08;4.55;;;;;;;12.91;100.00;99297.83;1705519;84;20992;-73
2022/09/23 02:03:32;;;;;;;4.90;4.17;;;;;;;12.93;100.00;99291.96;1705751;84;21004;-72
2022/09/23 02:06:03;;;;;;;14.18;4.62;;;;;;;12.98;100.00;99290.36;1706170;82;20908;-72
2022/09/23 02:09:00;;;;;;;5.75;4.85;;;;;;;12.97;100.00;99296.45;1684385;84;21068;-69
2022/09/23 02:11:27;;;;;;;6.05;4.60;;;;;;;12.84;100.00;99295.62;1705817;84;21766;-69
2022/09/23 02:14:18;;;;;;;5.37;4.87;;;;;;;12.78;100.00;99292.83;1683490;84;20901;-74
2022/09/23 02:16:51;;;;;;;6.87;4.83;;;;;;;12.74;100.00;99289.92;1705520;84;20988;-74
2022/09/23 02:19:33;;;;;;;6.30;4.12;;;;;;;12.85;100.00;99287.55;1705682;84;26868;-73
2022/09/23 02:22:07;;;;;;;5.97;4.62;;;;;;;12.88;100.00;99290.23;1705739;84;20944;-74
2022/09/23 02:24:40;;;;;;;6.47;5.12;;;;;;;12.89;100.00;99289.06;1705450;84;21190;-74
2022/09/23 02:27:38;;;;;;;8.75;4.90;;;;;;;12.93;100.00;99291.96;1705727;84;21001;-74
2022/09/23 02:30:26;;;;;;;5.70;4.78;;;;;;;12.93;100.00;99289.20;1705589;83;21549;-73
2022/09/23 02:33:18;;;;;;;5.62;4.87;;;;;;;12.88;100.00;99291.02;1705488;84;21079;-72
2022/09/23 02:35:53;;;;;;;7.95;4.90;;;;;;;12.88;100.00;99285.48;1705403;83;20984;-73
2022/09/23 02:38:34;;;;;;;5.83;4.47;;;;;;;12.88;100.00;99284.10;1705497;84;21210;-73
2022/09/23 02:41:15;;;;;;;5.53;4.78;;;;;;;12.89;100.00;99281.59;1705362;84;21000;-73
2022/09/23 02:43:55;;;;;;;7.15;4.92;;;;;;;12.85;100.00;99282.02;1705763;84;21509;-73
2022/09/23 02:46:25;;;;;;;9.85;4.15;;;;;;;12.80;100.00;99277.27;1705580;84;21501;-73
2022/09/23 02:49:03;;;;;;;7.53;5.22;;;;;;;12.76;100.00;99282.11;1705723;84;20968;-73
2022/09/23 02:51:34;;;;;;;6.08;4.72;;;;;;;12.72;100.00;99282.57;1705471;84;21851;-74
2022/09/23 02:54:02;;;;;;;13.40;5.20;;;;;;;12.68;100.00;99285.77;1705556;83;21556;-72
2022/09/23 02:56:31;;;;;;;7.80;5.20;;;;;;;12.72;100.00;99288.66;1705369;84;20873;-73
2022/09/23 02:59:00;;;;;;;7.37;4.75;;;;;;;12.73;100.00;99284.17;1705486;84;21430;-68
2022/09/23 03:02:12;;;;;;;7.40;4.75;;;;;;;12.73;100.00;99280.59;1684377;84;21035;-71
2022/09/23 03:05:14;;;;;;;6.55;5.10;;;;;;;12.77;100.00;99285.69;1705609;84;21247;-73
2022/09/23 03:08:05;;;;;;;5.55;4.92;;;;;;;12.81;100.00;99285.82;1705312;82;20996;-72
2022/09/23 03:11:10;;;;;;;5.42;4.58;;;;;;;12.80;100.00;99286.95;1705608;84;21524;-73
2022/09/23 03:14:16;;;;;;;7.58;4.83;;;;;;;12.81;100.00;99287.98;1705495;84;20873;-73
2022/09/23 03:16:59;;;;;;;5.35;4.85;;;;;;;12.81;100.00;99284.44;1705384;84;21035;-71
2022/09/23 03:19:43;;;;;;;4.50;3.92;;;;;;;12.81;100.00;99289.38;1705444;84;21118;-74
2022/09/23 03:22:29;;;;;;;5.92;4.22;;;;;;;12.83;100.00;99282.94;1705631;84;21469;-74
2022/09/23 03:25:00;;;;;;;5.37;4.03;;;;;;;12.85;100.00;99285.35;1705449;84;21013;-72
2022/09/23 03:27:29;;;;;;;4.47;4.05;;;;;;;12.86;100.00;99291.92;1705784;84;20935;-72
2022/09/23 03:29:57;;;;;;;5.97;4.15;;;;;;;12.84;100.00;99285.95;1705611;84;20932;-74
2022/09/23 03:32:26;;;;;;;6.33;4.42;;;;;;;12.84;100.00;99283.19;1705760;84;21732;-71
2022/09/23 03:34:57;;;;;;;8.70;4.00;;;;;;;12.84;100.00;99286.52;1705393;84;21064;-73
2022/09/23 03:37:32;;;;;;;4.70;4.30;;;;;;;12.83;100.00;99282.15;1705831;84;21437;-73
2022/09/23 03:40:21;;;;;;;5.55;4.60;;;;;;;12.84;100.00;99284.56;1705416;84;21429;-75
2022/09/23 03:42:48;;;;;;;7.45;4.47;;;;;;;12.83;100.00;99284.31;1705384;84;20900;-73
2022/09/23 03:45:17;;;;;;;4.85;3.62;;;;;;;12.86;100.00;99286.98;1705542;84;21465;-74
2022/09/23 03:47:46;;;;;;;5.85;3.98;;;;;;;12.85;100.00;99281.20;1705585;84;20963;-72
2022/09/23 03:50:16;;;;;;;6.05;4.00;;;;;;;12.81;100.00;99287.98;1705506;84;20905;-72
2022/09/23 03:52:43;;;;;;;5.35;4.28;;;;;;;12.87;100.00;99283.06;1705490;84;21012;-70
2022/09/23 03:55:10;;;;;;;9.75;3.98;;;;;;;12.86;100.00;99282.24;1705900;84;21031;-70
2022/09/23 03:57:39;;;;;;;4.85;3.85;;;;;;;12.93;100.00;99277.54;1705384;84;21142;-73
2022/09/23 04:00:08;;;;;;;3.92;3.50;;;;;;;12.97;100.00;99275.72;1705367;84;21005;-72
2022/09/23 04:02:41;;;;;;;5.90;4.22;;;;;;;12.95;100.00;99280.78;1684521;84;21087;-73
2022/09/23 04:05:09;;;;;;;6.85;4.35;;;;;;;12.93;100.00;99283.06;1705579;84;20990;-71
2022/09/23 04:07:36;;;;;;;6.17;4.50;;;;;;;12.96;100.00;99285.73;1705621;82;20905;-71
2022/09/23 04:10:05;;;;;;;5.87;4.20;;;;;;;12.96;100.00;99288.50;1705771;84;21134;-73
2022/09/23 04:12:35;;;;;;;7.42;4.58;;;;;;;12.93;100.00;99289.20;1705691;83;20960;-73
2022/09/23 04:15:05;;;;;;;6.62;4.65;;;;;;;12.96;100.00;99289.33;1705571;84;21007;-74
2022/09/23 04:17:35;;;;;;;6.03;5.03;;;;;;;12.96;100.00;99289.33;1705502;84;20913;-76
2022/09/23 04:20:05;;;;;;;7.20;4.85;;;;;;;13.00;100.00;99285.27;1705382;84;21000;-74
2022/09/23 04:22:37;;;;;;;6.12;4.87;;;;;;;13.03;100.00;99290.14;1705300;84;20988;-74
2022/09/23 04:25:06;;;;;;;8.83;5.20;;;;;;;13.06;100.00;99292.78;1705503;84;21497;-75
2022/09/23 04:27:35;;;;;;;6.55;5.05;;;;;;;13.07;100.00;99293.82;1705697;84;21564;-74
2022/09/23 04:30:01;;;;;;;6.75;5.00;;;;;;;13.11;100.00;99289.80;1683401;84;21575;-71
2022/09/23 04:32:31;;;;;;;6.35;5.37;;;;;;;13.11;100.00;99288.41;1683870;84;20985;-72
2022/09/23 04:34:59;;;;;;;6.85;4.45;;;;;;;13.07;100.00;99287.50;1705723;84;21129;-73
2022/09/23 04:37:29;;;;;;;10.43;5.33;;;;;;;12.95;100.00;99289.66;1705731;83;21095;-76
2022/09/23 04:40:00;;;;;;;7.22;5.75;;;;;;;12.94;100.00;99289.41;1705518;84;20996;-73
2022/09/23 04:42:30;;;;;;;10.68;4.90;;;;;;;12.90;100.00;99290.67;1705926;84;20944;-72
2022/09/23 04:44:57;;;;;;;7.50;5.20;;;;;;;12.92;100.00;99298.05;1705549;84;21017;-73
2022/09/23 04:47:28;;;;;;;6.20;4.75;;;;;;;12.97;100.00;99295.64;1705590;84;21996;-74
2022/09/23 04:49:58;;;;;;;5.90;4.62;;;;;;;12.96;100.00;99294.86;1705615;84;21011;-70
2022/09/23 04:52:26;;;;;;;5.35;4.83;;;;;;;12.96;100.00;99291.27;1705572;84;21028;-73
2022/09/23 04:54:52;;;;;;;7.30;5.03;;;;;;;12.99;100.00;99294.73;1705465;84;20936;-73
2022/09/23 04:57:19;;;;;;;7.08;5.37;;;;;;;13.02;100.00;99303.72;1705663;84;20967;-72
2022/09/23 04:59:47;;;;;;;30.75;5.53;;;;;;;13.03;100.00;99295.67;1703658;84;21386;-74
2022/09/23 05:02:16;;;;;;;6.42;5.00;;;;;;;13.06;100.00;99296.37;1705475;84;20905;-72
2022/09/23 05:04:44;;;;;;;7.62;4.97;;;;;;;13.09;100.00;99297.63;1705585;84;20929;-73
2022/09/23 05:07:12;;;;;;;6.72;4.95;;;;;;;13.11;100.00;99300.87;1705468;82;21032;-74
2022/09/23 05:09:44;;;;;;;5.85;5.17;;;;;;;13.12;100.00;99298.31;1705604;84;21056;-71
2022/09/23 05:12:13;;;;;;;6.83;5.42;;;;;;;13.12;100.00;99297.75;1705995;84;21084;-72
2022/09/23 05:14:40;;;;;;;6.50;4.97;;;;;;;13.12;100.00;99298.31;1705534;84;21027;-74
2022/09/23 05:17:07;;;;;;;6.40;4.78;;;;;;;13.15;100.00;99303.98;1705593;84;21087;-72
2022/09/23 05:19:36;;;;;;;7.10;4.92;;;;;;;13.15;100.00;99303.98;1705735;84;21489;-74
2022/09/23 05:22:04;;;;;;;6.22;4.67;;;;;;;13.12;100.00;99305.23;1705419;84;20987;-74
2022/09/23 05:24:31;;;;;;;5.28;4.78;;;;;;;13.12;100.00;99300.52;1705565;84;21567;-73
2022/09/23 05:27:00;;;;;;;11.20;4.28;;;;;;;13.16;100.00;99302.03;1705394;84;20985;-72
2022/09/23 05:29:30;;;;;;;6.20;4.50;;;;;;;13.18;100.00;99296.15;1705555;84;20992;-72
2022/09/23 05:31:57;;;;;;;4.22;3.83;;;;;;;13.16;100.00;99299.27;1705640;84;21025;-73
2022/09/23 05:34:23;;;;;;;4.33;3.92;;;;;;;13.15;100.00;99298.45;1705512;83;20988;-71
2022/09/23 05:36:52;;;;;;;5.70;4.45;;;;;;;13.21;100.00;99303.19;1705690;84;21099;-72
2022/09/23 05:39:20;;;;;;;5.20;4.33;;;;;;;13.27;100.00;99303.19;1705468;84;20893;-71
2022/09/23 05:41:48;;;;;;;4.97;4.50;;;;;;;13.35;100.00;99298.72;1705798;84;20953;-73
2022/09/23 05:44:14;;;;;;;5.47;4.55;;;;;;;13.39;100.00;99303.78;1705823;84;20992;-69
2022/09/23 05:46:41;;;;;;;7.95;5.45;;;;;;;13.44;100.00;99296.42;1705495;84;20975;-75
2022/09/23 05:49:09;;;;;;;9.70;4.55;;;;;;;13.48;100.00;99300.09;1705542;84;21229;-71
2022/09/23 05:51:36;;;;;;;5.90;4.60;;;;;;;13.50;100.00;99297.80;1683305;84;21418;-71
2022/09/23 05:54:05;;;;;;;5.35;4.83;;;;;;;13.50;100.00;99299.18;1705497;84;21043;-71
2022/09/23 05:56:34;;;;;;;5.42;4.47;;;;;;;13.54;100.00;99299.33;1705557;84;20957;-72
2022/09/23 05:59:04;;;;;;;7.75;5.03;;;;;;;13.55;100.00;99296.78;1705495;84;21004;-74
2022/09/23 06:01:35;;;;;;;7.70;5.45;;;;;;;13.59;100.00;99298.53;1705799;84;21106;-71
2022/09/23 06:04:03;;;;;;;6.87;4.92;;;;;;;13.68;100.00;99297.61;1705398;84;21000;-73
2022/09/23 06:06:37;;;;;;;6.30;4.37;;;;;;;13.76;100.00;99296.67;1705798;84;21091;-72
2022/09/23 06:09:10;;;;;;;6.37;4.40;;;;;;;13.84;100.00;99293.54;1683970;84;21486;-74
2022/09/23 06:11:40;;;;;;;4.87;4.15;;;;;;;13.91;100.00;99297.92;1705388;84;21430;-74
2022/09/23 06:14:08;;;;;;;8.08;5.10;;;;;;;13.96;100.00;99294.11;1705529;83;21152;-71
2022/09/23 06:16:38;;;;;;;5.55;4.35;;;;;;;14.02;100.00;99299.66;1705403;84;20932;-73
2022/09/23 06:19:06;;;;;;;4.70;4.20;;;;;;;14.04;100.00;99294.55;1705452;84;21079;-73
2022/09/23 06:21:36;;;;;;;4.58;3.98;;;;;;;14.11;100.00;99294.77;1705454;84;21497;-73
2022/09/23 06:24:05;;;;;;;4.83;4.30;;;;;;;14.20;100.00;99302.95;1705655;83;21044;-72
2022/09/23 06:26:36;;;;;;;4.92;3.85;;;;;;;14.29;100.00;99302.01;1705519;83;21003;-72
2022/09/23 06:29:10;;;;;;;4.28;3.58;;;;;;;14.35;100.00;99295.86;1705659;84;21503;-73
2022/09/23 06:31:40;;;;;;;5.25;3.65;;;;;;;14.43;100.00;99302.41;1705672;84;20932;-73
2022/09/23 06:34:10;;;;;;;5.50;4.58;;;;;;;14.45;100.00;99295.16;1705513;84;21521;-73
2022/09/23 06:36:41;;;;;;;4.80;3.90;;;;;;;14.45;100.00;99296.54;1705507;84;20952;-73
2022/09/23 06:39:08;;;;;;;7.45;4.25;;;;;;;14.46;100.00;99296.76;1705774;84;21781;-74
2022/09/23 06:41:40;;;;;;;5.50;3.50;;;;;;;14.51;100.00;99293.73;1705423;84;21016;-73
2022/09/23 06:44:12;;;;;;;5.08;4.12;;;;;;;14.58;100.00;99295.34;1705396;84;20973;-72
2022/09/23 06:46:39;;;;;;;9.65;4.20;;;;;;;14.63;100.00;99295.66;1705814;84;21057;-73
2022/09/23 06:49:06;;;;;;;4.53;3.62;;;;;;;14.62;100.00;99291.25;1705487;83;20993;-72
2022/09/23 06:51:35;;;;;;;5.67;3.45;;;;;;;14.62;100.00;99291.85;1705580;84;21862;-72
2022/09/23 06:54:02;;;;;;;5.17;3.27;;;;;;;14.63;100.00;99290.11;1705623;84;21509;-73
2022/09/23 06:56:29;;;;;;;5.67;3.20;;;;;;;14.66;100.00;99296.33;1705616;84;20912;-73
2022/09/23 06:58:58;;;;;;;3.90;3.33;;;;;;;14.68;100.00;99290.42;1705495;84;20865;-73
2022/09/23 07:01:24;;;;;;;4.62;3.50;;;;;;;14.58;100.00;99287.02;1705579;84;21141;-72
2022/09/23 07:03:53;;;;;;;5.53;3.83;;;;;;;14.57;100.00;99286.77;1683365;84;21874;-71
2022/09/23 07:06:19;;;;;;;3.55;3.08;;;;;;;14.56;100.00;99287.95;1705537;84;21445;-73
2022/09/23 07:08:47;;;;;;;3.45;2.77;;;;;;;14.54;100.00;99288.05;1708297;83;21460;-72
2022/09/23 07:11:14;;;;;;;4.45;2.90;;;;;;;14.55;100.00;99285.52;1731189;83;21496;-72
2022/09/23 07:13:41;;;;;;;3.80;2.72;;;;;;;14.56;100.00;99286.56;1731277;83;21034;-73
2022/09/23 07:16:10;;;;;;;2.87;2.67;;;;;;;14.57;100.00;99280.41;1731085;83;21103;-73
2022/09/23 07:18:42;;;;;;;3.42;3.12;;;;;;;14.59;100.00;99286.42;1731111;83;21432;-71
2022/09/23 07:21:17;;;;;;;3.45;2.80;;;;;;;14.58;100.00;99281.47;1731128;83;21047;-70
2022/09/23 07:23:48;;;;;;;4.15;3.45;;;;;;;14.63;100.00;99279.59;1731481;82;20931;-73
2022/09/23 07:26:16;;;;;;;7.37;3.45;;;;;;;14.70;100.00;99279.22;1731166;83;21086;-70
2022/09/23 07:28:43;;;;;;;5.28;3.47;;;;;;;14.74;100.00;99273.75;1731413;83;21826;-73
2022/09/23 07:31:15;;;;;;;4.05;3.35;;;;;;;14.80;100.00;99271.00;1731031;83;21033;-69
2022/09/23 07:33:44;;;;;;;7.35;3.50;;;;;;;14.85;100.00;99268.53;1731146;83;20974;-72
2022/09/23 07:36:18;;;;;;;4.80;3.60;;;;;;;14.91;100.00;99265.72;1731148;83;20940;-73
2022/09/23 07:38:49;;;;;;;4.45;3.90;;;;;;;14.77;100.00;99264.75;1704877;83;20939;-70
2022/09/23 07:41:19;;;;;;;3.77;2.95;;;;;;;14.55;100.00;99271.66;1731323;83;21436;-72
2022/09/23 07:43:45;;;;;;;5.33;3.67;;;;;;;14.44;100.00;99265.23;1702959;83;20947;-72
2022/09/23 07:46:16;;;;;;;4.35;3.72;;;;;;;14.45;100.00;99268.22;1731109;83;21013;-72
2022/09/23 07:48:44;;;;;;;4.15;3.70;;;;;;;14.46;100.00;99263.50;1731544;82;20990;-74
2022/09/23 07:51:25;;;;;;;4.30;3.52;;;;;;;14.50;100.00;99260.23;1731145;83;21070;-72
2022/09/23 07:53:59;;;;;;;7.33;3.98;;;;;;;14.58;100.00;99265.41;1724477;83;21809;-73
2022/09/23 07:56:39;;;;;;;3.92;3.52;;;;;;;14.64;100.00;99263.20;1731058;82;20860;-74
2022/09/23 07:59:20;;;;;;;5.40;3.60;;;;;;;14.70;100.00;99261.77;1700538;83;20967;-73
2022/09/23 08:01:56;;;;;;;4.42;4.03;;;;;;;14.79;100.00;99259.63;1731013;83;20951;-73
2022/09/23 08:04:29;;;;;;;5.20;3.90;;;;;;;14.91;100.00;99258.00;1731132;83;21496;-72
2022/09/23 08:07:00;;;;;;;5.03;4.22;;;;;;;15.01;100.00;99260.22;1731212;83;21295;-73
2022/09/23 08:09:33;;;;;;;8.00;4.97;;;;;;;15.09;100.00;99253.72;1731279;83;20907;-72
2022/09/23 08:12:01;;;;;;;6.22;3.45;;;;;;;15.25;100.00;99252.89;1730975;82;21063;-73
2022/09/23 08:14:27;;;;;;;7.85;3.62;;;;;;;15.46;100.00;99253.19;1731362;82;20876;-69
2022/09/23 08:16:55;;;;;;;4.35;2.98;;;;;;;15.67;100.00;99247.36;1731165;83;20939;-72
2022/09/23 08:19:22;;;;;;;4.87;3.60;;;;;;;15.81;100.00;99245.46;1731020;83;21555;-71
2022/09/23 08:21:50;;;;;;;3.90;3.50;;;;;;;15.79;100.00;99242.84;1731184;83;20987;-71
2022/09/23 08:24:22;;;;;;;4.12;3.52;;;;;;;15.68;100.00;99242.01;1731250;82;20895;-72
2022/09/23 08:26:52;;;;;;;11.90;3.12;;;;;;;15.54;100.00;99248.03;1731514;83;20952;-72
2022/09/23 08:29:23;;;;;;;6.45;2.60;;;;;;;15.32;100.00;99249.48;1731287;83;21476;-74
2022/09/23 08:31:52;;;;;;;7.12;1.82;;;;;;;15.24;100.00;99251.86;1731485;83;21160;-73
2022/09/23 08:34:21;;;;;;;5.97;1.30;;;;;;;15.23;100.00;99248.88;1731360;83;21430;-70
2022/09/23 08:36:51;;;;;;;1.02;0.98;;;;;;;15.14;100.00;99251.25;1731092;83;20960;-71
2022/09/23 08:39:19;;;;;;;4.30;1.02;;;;;;;15.15;100.00;99250.67;1731083;83;20947;-72
2022/09/23 08:41:51;;;;;;;1.35;1.10;;;;;;;15.15;100.00;99252.06;1731122;83;20931;-68
2022/09/23 08:44:49;;;;;;;2.75;0.95;;;;;;;15.20;100.00;99249.80;1731157;83;21103;-73
2022/09/23 08:47:26;;;;;;;1.35;1.10;;;;;;;15.23;100.00;99242.75;1731123;83;20956;-69
2022/09/23 08:50:23;;;;;;;1.37;1.27;;;;;;;15.27;100.00;99240.06;1731444;82;20931;-73
2022/09/23 08:53:03;;;;;;;2.12;1.90;;;;;;;15.26;100.00;99237.86;1730722;83;20952;-72
2022/09/23 08:55:51;;;;;;;2.10;1.90;;;;;;;15.22;100.00;99236.95;1731343;83;21105;-71
2022/09/23 08:58:48;;;;;;;4.28;3.65;;;;;;;15.24;100.00;99233.25;1731397;82;21437;-70
2022/09/23 09:01:41;;;;;;;10.43;6.05;;;;;;;15.35;100.00;99239.64;1731242;83;20967;-71
2022/09/23 09:04:18;;;;;;;4.75;3.80;;;;;;;15.23;100.00;99235.00;1730967;83;20955;-70
2022/09/23 09:06:57;;;;;;;5.50;3.80;;;;;;;15.07;100.00;99239.39;1731194;83;21027;-72
2022/09/23 09:10:01;;;;;;;6.92;4.58;;;;;;;15.09;100.00;99237.64;1729190;82;21504;-71
2022/09/23 09:13:06;;;;;;;7.85;6.15;;;;;;;15.16;100.00;99232.85;1683566;84;21158;-72
2022/09/23 09:15:38;;;;;;;15.65;11.30;;;;;;;15.15;100.00;99233.42;1705700;84;21065;-72
2022/09/23 09:18:18;;;;;;;10.00;4.40;;;;;;;15.00;100.00;99234.22;1706078;84;20987;-71
2022/09/23 09:21:07;;;;;;;3.87;2.67;;;;;;;14.78;100.00;99238.61;1705652;84;20952;-73
2022/09/23 09:23:55;;;;;;;2.87;2.52;;;;;;;14.47;100.00;99242.92;1705936;84;20897;-74
2022/09/23 09:26:28;;;;;;;3.58;1.67;;;;;;;14.24;100.00;99247.05;1705486;83;22134;-74
2022/09/23 09:29:13;;;;;;;5.12;1.95;;;;;;;14.04;100.00;99239.75;1705696;83;20964;-74
2022/09/23 09:31:47;;;;;;;11.75;2.62;;;;;;;13.94;100.00;99245.17;1684796;84;20984;-73
2022/09/23 09:34:36;;;;;;;4.15;2.37;;;;;;;13.88;100.00;99248.78;1705465;84;20928;-73
2022/09/23 09:37:11;;;;;;;2.83;2.02;;;;;;;13.77;100.00;99247.05;1705432;84;20924;-72
2022/09/23 09:39:41;;;;;;;3.20;1.57;;;;;;;13.69;100.00;99247.99;1705539;84;21418;-70
2022/09/23 09:42:11;;;;;;;2.55;1.70;;;;;;;13.68;100.00;99249.16;1705404;84;20941;-70
2022/09/23 09:44:57;;;;;;;1.62;1.32;;;;;;;13.66;100.00;99244.54;1683602;84;20873;-72
2022/09/23 09:47:46;;;;;;;3.00;2.10;;;;;;;13.68;100.00;99255.48;1683360;84;20951;-70
2022/09/23 09:50:47;;;;;;;3.62;2.52;;;;;;;13.69;100.00;99256.30;1705503;83;21040;-69
2022/09/23 09:53:34;;;;;;;9.38;2.90;;;;;;;13.77;100.00;99257.34;1705718;84;21721;-73
2022/09/23 09:56:07;;;;;;;3.85;2.62;;;;;;;13.81;100.00;99252.70;1705303;84;21544;-71
2022/09/23 09:58:52;;;;;;;6.83;3.12;;;;;;;13.80;100.00;99253.87;1705479;84;21036;-71
2022/09/23 10:01:23;;;;;;;7.05;3.27;;;;;;;13.87;100.00;99246.58;1705441;84;20977;-72
2022/09/23 10:03:53;;;;;;;5.22;3.45;;;;;;;13.92;100.00;99251.66;1705432;83;21095;-70
2022/09/23 10:06:24;;;;;;;7.47;3.85;;;;;;;13.95;100.00;99254.55;1705759;84;21162;-71
2022/09/23 10:09:12;;;;;;;6.20;3.20;;;;;;;14.03;100.00;99250.58;1705599;84;21055;-68
2022/09/23 10:11:41;;;;;;;4.35;3.30;;;;;;;14.08;100.00;99249.77;1685182;83;20951;-69
2022/09/23 10:14:17;;;;;;;4.30;3.33;;;;;;;14.14;100.00;99248.14;1715646;83;20901;-63
2022/09/23 10:16:47;;;;;;;3.00;2.50;;;;;;;14.18;100.00;99251.80;1715677;83;21016;-70
2022/09/23 10:19:27;;;;;;;3.40;2.27;;;;;;;14.22;100.00;99252.16;1715797;83;21196;-70
2022/09/23 10:22:05;;;;;;;9.65;2.80;;;;;;;14.27;100.00;99255.25;1715665;83;20908;-72
2022/09/23 10:24:35;;;;;;;5.55;2.85;;;;;;;14.26;100.00;99250.88;1715806;83;21499;-71
2022/09/23 10:27:10;;;;;;;3.10;2.62;;;;;;;14.25;100.00;99249.25;1715746;83;22036;-71
2022/09/23 10:29:55;;;;;;;3.75;2.95;;;;;;;14.25;100.00;99253.41;1715923;83;20908;-69
2022/09/23 10:32:37;;;;;;;5.55;2.58;;;;;;;14.24;100.00;99244.88;1715816;83;21097;-71
2022/09/23 10:35:13;;;;;;;4.70;2.98;;;;;;;14.30;100.00;99244.03;1715895;83;21504;-71
2022/09/23 10:37:55;;;;;;;3.58;2.52;;;;;;;14.38;100.00;99245.05;1715757;83;21051;-69
2022/09/23 10:47:10;;;;;;;2.80;2.27;;;;;;;14.65;100.00;99239.27;1715902;83;20995;-69
2022/09/23 10:50:02;;;;;;;2.20;1.60;;;;;;;14.72;100.00;99242.82;1715660;83;20920;-68
2022/09/23 10:52:45;;;;;;;3.33;2.07;;;;;;;14.82;100.00;99235.37;1715985;83;21437;-72
2022/09/23 10:55:42;;;;;;;3.40;2.45;;;;;;;14.98;100.00;99233.20;1715650;83;21008;-72
2022/09/23 10:58:49;;;;;;;3.30;2.17;;;;;;;15.10;100.00;99239.24;1715759;83;21020;-73
2022/09/23 11:01:41;;;;;;;3.87;2.20;;;;;;;15.15;100.00;99246.52;1715752;83;21205;-73
2022/09/23 11:04:22;;;;;;;5.67;2.67;;;;;;;15.26;100.00;99240.64;1715749;83;20983;-73
2022/09/23 11:07:06;;;;;;;4.85;3.47;;;;;;;15.36;100.00;99234.31;1715778;83;20932;-67
2022/09/23 11:09:59;;;;;;;6.35;5.00;;;;;;;15.39;100.00;99236.36;1715788;83;20992;-68
2022/09/23 11:12:51;;;;;;;5.45;4.10;;;;;;;15.28;100.00;99234.16;1715856;83;21432;-72
2022/09/23 11:15:55;;;;;;;3.80;2.62;;;;;;;15.16;100.00;99234.23;1715872;83;21136;-74
2022/09/23 11:18:44;;;;;;;;;;;;;;;15.19;100.00;99233.52;1660602;83;21485;-73
2022/09/23 11:21:37;;;;;;;3.27;2.10;;;;;;;15.26;100.00;99235.66;1716064;83;20120;-74
2022/09/23 11:24:39;;;;;;;3.25;1.92;;;;;;;15.34;100.00;99238.83;1715722;82;20996;-73
2022/09/23 11:27:15;;;;;;;1.90;1.62;;;;;;;15.42;100.00;99232.28;1715754;83;20923;-67
2022/09/23 11:30:18;;;;;;;3.05;1.77;;;;;;;15.54;100.00;99227.81;1713420;83;21215;-68
2022/09/23 11:33:12;;;;;;;2.67;1.70;;;;;;;15.62;100.00;99228.19;1715642;83;21477;-69
2022/09/23 11:35:54;;;;;;;2.40;1.80;;;;;;;15.70;100.00;99224.98;1715956;83;21045;-73
2022/09/23 11:38:29;;;;;;;4.53;2.40;;;;;;;15.74;100.00;99218.94;1715620;83;21564;-71
2022/09/23 11:41:04;;;;;;;2.15;1.50;;;;;;;15.79;100.00;99220.05;1716006;83;20936;-72
2022/09/23 11:43:39;;;;;;;1.45;1.30;;;;;;;15.73;100.00;99220.09;1686310;83;21118;-72
2022/09/23 11:46:35;;;;;;;1.92;1.10;;;;;;;15.63;100.00;99215.09;1715792;83;21505;-73
2022/09/23 11:49:26;;;;;;;2.15;1.60;;;;;;;15.58;100.00;99210.63;1715770;82;20896;-72
2022/09/23 11:52:18;;;;;;;2.62;1.85;;;;;;;15.70;100.00;99216.08;1715660;83;20996;-71
2022/09/23 11:55:15;;;;;;;2.92;2.08;;;;;;;15.85;100.00;99208.05;1715706;83;21051;-72
2022/09/23 11:57:53;;;;;;;2.00;1.80;;;;;;;16.00;100.00;99205.02;1715806;83;21805;-71
2022/09/23 12:00:27;;;;;;;3.00;1.77;;;;;;;16.10;100.00;99192.53;1716056;83;21414;-66
2022/09/23 12:03:08;;;;;;;;;;;;;;;16.22;100.00;99194.36;1718216;83;20956;-69
2022/09/23 12:06:01;;;;;;;2.30;2.05;;;;;;;16.33;100.00;99200.69;1715662;83;20160;-67
2022/09/23 12:08:33;;;;;;;3.45;2.40;;;;;;;16.38;100.00;99196.23;1715854;83;20936;-71
2022/09/23 12:11:28;;;;;;;;;;;;;;;16.32;100.00;99203.27;1720316;82;21140;-70
2022/09/23 12:14:49;;;;;;;4.08;2.15;;;;;;;16.20;100.00;99200.87;1705475;82;20489;-69